Time;durP1;ratioP1;P1;durP2;ratioP2;P2;SDS_P1;SDS_P2;PMS_P1;PMS_P2;Temp;Humidity;BMP_temperature;BMP_pressure;BME280_temperature;BME280_humidity;BME280_pressure;Samples;Min_cycle;Max_cycle;Signal;HPM_P1;HPM_P2
2022/03/12 00:00:30;;;;;;;12.20;8.48;;;7.30;52.00;;;;;;4976021;28;20505;-77
2022/03/12 00:02:59;;;;;;;11.80;7.55;;;7.30;52.10;;;;;;4987901;28;20588;-79
2022/03/12 00:05:30;;;;;;;11.13;8.15;;;7.30;51.80;;;;;;4982578;28;20188;-79
2022/03/12 00:07:57;;;;;;;11.07;7.85;;;7.40;52.00;;;;;;4993982;28;20046;-79
2022/03/12 00:10:23;;;;;;;12.93;8.50;;;7.30;51.50;;;;;;4970984;28;20038;-80
2022/03/12 00:12:50;;;;;;;11.75;7.28;;;7.30;51.70;;;;;;4977184;28;20496;-80
2022/03/12 00:15:16;;;;;;;10.55;7.85;;;7.30;51.90;;;;;;4995502;28;20449;-80
2022/03/12 00:17:46;;;;;;;10.57;7.68;;;7.40;51.80;;;;;;4981267;28;20223;-79
2022/03/12 00:20:14;;;;;;;11.70;7.93;;;7.30;51.50;;;;;;4956744;28;20045;-78
2022/03/12 00:22:47;;;;;;;11.60;7.47;;;7.40;51.80;;;;;;5004547;28;20065;-77
2022/03/12 00:25:22;;;;;;;10.82;7.63;;;7.40;51.70;;;;;;4984129;28;20128;-81
2022/03/12 00:27:50;;;;;;;10.60;7.35;;;7.30;52.00;;;;;;4990676;28;20072;-78
2022/03/12 00:30:21;;;;;;;13.10;7.35;;;7.30;51.70;;;;;;4999491;28;20106;-78
2022/03/12 00:32:48;;;;;;;12.07;8.13;;;7.40;51.40;;;;;;5002922;28;20602;-80
2022/03/12 00:35:16;;;;;;;10.13;7.40;;;7.40;51.70;;;;;;4987050;28;20056;-77
2022/03/12 00:37:42;;;;;;;11.40;7.68;;;7.40;51.80;;;;;;4971925;28;20071;-80
2022/03/12 00:40:08;;;;;;;11.48;8.05;;;7.40;51.30;;;;;;4987081;28;20533;-79
2022/03/12 00:42:34;;;;;;;9.27;6.90;;;7.40;51.60;;;;;;4971026;28;20046;-78
2022/03/12 00:45:00;;;;;;;15.18;8.10;;;7.40;51.80;;;;;;4974314;28;20056;-76
2022/03/12 00:47:29;;;;;;;9.98;7.65;;;7.40;52.40;;;;;;5005293;28;20041;-77
2022/03/12 00:49:58;;;;;;;9.50;7.10;;;7.40;51.80;;;;;;4971019;28;20054;-80
2022/03/12 00:52:24;;;;;;;13.30;7.93;;;7.30;51.80;;;;;;4986156;28;20046;-79
2022/03/12 00:54:49;;;;;;;12.27;7.60;;;7.40;52.00;;;;;;4971284;28;20318;-79
2022/03/12 00:57:15;;;;;;;15.65;8.13;;;7.40;52.00;;;;;;4987042;28;20050;-78
2022/03/12 00:59:42;;;;;;;10.68;7.93;;;7.40;52.10;;;;;;4987127;28;20057;-79
2022/03/12 01:02:15;;;;;;;11.00;7.90;;;7.40;51.70;;;;;;4986655;28;20045;-79
2022/03/12 01:04:41;;;;;;;10.25;7.40;;;7.30;52.20;;;;;;4986850;28;20571;-77
2022/03/12 01:07:08;;;;;;;11.18;7.70;;;7.40;51.90;;;;;;4993884;28;20054;-77
2022/03/12 01:09:34;;;;;;;9.60;7.53;;;7.40;52.20;;;;;;4952585;28;20039;-78
2022/03/12 01:12:00;;;;;;;11.02;7.60;;;7.40;53.10;;;;;;4984455;28;20058;-79
2022/03/12 01:14:29;;;;;;;11.48;7.50;;;7.40;52.20;;;;;;4983716;28;20543;-79
2022/03/12 01:16:58;;;;;;;11.15;8.10;;;7.30;52.30;;;;;;4967705;28;20129;-78
2022/03/12 01:19:25;;;;;;;12.32;8.30;;;7.30;52.30;;;;;;4977214;28;20641;-79
2022/03/12 01:21:53;;;;;;;11.77;7.60;;;7.30;52.40;;;;;;4986634;28;20049;-80
2022/03/12 01:24:19;;;;;;;10.98;7.18;;;7.30;52.20;;;;;;4980429;28;20053;-77
2022/03/12 01:26:45;;;;;;;10.40;7.63;;;7.30;52.60;;;;;;4979211;28;20038;-80
2022/03/12 01:29:11;;;;;;;12.13;8.00;;;7.30;52.50;;;;;;4978191;28;20440;-80
2022/03/12 01:31:37;;;;;;;9.10;7.47;;;7.30;52.50;;;;;;4955047;28;20099;-78
2022/03/12 01:34:04;;;;;;;10.73;7.47;;;7.30;52.40;;;;;;4980855;28;20149;-80
2022/03/12 01:36:30;;;;;;;10.70;8.27;;;7.30;52.60;;;;;;4993119;28;20054;-77
2022/03/12 01:38:57;;;;;;;12.98;8.35;;;7.30;52.40;;;;;;4976395;28;20050;-77
2022/03/12 01:41:26;;;;;;;12.13;8.00;;;7.30;52.40;;;;;;4992608;28;20110;-77
2022/03/12 01:43:53;;;;;;;11.65;7.57;;;7.30;52.30;;;;;;4974004;28;20472;-77
2022/03/12 01:46:29;;;;;;;11.35;7.65;;;7.30;52.20;;;;;;4998971;28;20530;-77
2022/03/12 01:48:59;;;;;;;12.43;8.27;;;7.30;52.40;;;;;;4996894;28;20046;-78
2022/03/12 01:51:26;;;;;;;12.48;8.45;;;7.30;52.30;;;;;;4974351;28;20108;-79
2022/03/12 01:53:58;;;;;;;14.18;8.23;;;7.20;52.90;;;;;;4969648;28;20050;-78
2022/03/12 01:56:27;;;;;;;12.55;8.70;;;7.20;52.60;;;;;;4984322;28;20130;-78
2022/03/12 01:58:54;;;;;;;12.77;7.78;;;7.20;53.40;;;;;;4980666;28;20128;-76
2022/03/12 02:01:20;;;;;;;13.60;7.88;;;7.30;52.60;;;;;;4984386;28;20055;-80
2022/03/12 02:03:47;;;;;;;9.93;8.00;;;7.20;52.90;;;;;;4969713;28;20049;-79
2022/03/12 02:06:19;;;;;;;12.25;8.40;;;7.20;52.70;;;;;;4982843;28;20042;-79
2022/03/12 02:08:49;;;;;;;11.15;8.15;;;7.30;52.80;;;;;;4998626;28;20052;-80
2022/03/12 02:11:25;;;;;;;15.63;8.52;;;7.20;52.70;;;;;;4971133;28;20460;-80
2022/03/12 02:14:15;;;;;;;12.18;8.23;;;7.30;52.40;;;;;;4983044;28;20100;-78
2022/03/12 02:16:59;;;;;;;12.25;7.97;;;7.30;52.60;;;;;;5000658;28;20069;-78
2022/03/12 02:19:28;;;;;;;12.57;7.95;;;7.30;52.70;;;;;;4987265;28;20045;-78
2022/03/12 02:22:09;;;;;;;13.32;8.38;;;7.20;52.70;;;;;;4978117;28;20078;-79
2022/03/12 02:24:37;;;;;;;12.00;8.02;;;7.20;52.80;;;;;;4974297;28;20042;-77
2022/03/12 02:27:05;;;;;;;11.38;8.30;;;7.30;52.70;;;;;;4994845;28;20046;-79
2022/03/12 02:29:31;;;;;;;13.95;7.68;;;7.20;52.70;;;;;;4970713;28;20041;-78
2022/03/12 02:32:01;;;;;;;11.20;7.93;;;7.20;52.70;;;;;;4969414;28;20161;-78
2022/03/12 02:34:42;;;;;;;14.37;8.10;;;7.30;52.50;;;;;;4990118;28;20042;-78
2022/03/12 02:37:09;;;;;;;12.45;8.48;;;7.30;52.60;;;;;;5000951;28;20288;-76
2022/03/12 02:39:38;;;;;;;9.85;8.05;;;7.20;52.50;;;;;;4989485;28;20374;-77
2022/03/12 02:42:06;;;;;;;14.00;8.00;;;7.30;52.50;;;;;;4982710;28;20473;-77
2022/03/12 02:44:32;;;;;;;11.43;7.53;;;7.30;52.40;;;;;;4975705;28;20049;-77
2022/03/12 02:47:13;;;;;;;11.50;8.32;;;7.20;52.50;;;;;;4973604;28;20073;-78
2022/03/12 02:49:45;;;;;;;13.90;8.18;;;7.20;52.90;;;;;;4980245;28;20100;-76
2022/03/12 02:52:11;;;;;;;11.43;8.70;;;7.20;52.30;;;;;;4992207;28;20325;-78
2022/03/12 02:54:36;;;;;;;12.32;8.25;;;7.20;52.70;;;;;;4985481;28;20044;-78
2022/03/12 02:57:03;;;;;;;9.68;7.65;;;7.20;52.80;;;;;;4960206;28;20046;-76
2022/03/12 02:59:29;;;;;;;9.80;8.02;;;7.20;52.90;;;;;;4973339;28;20070;-77
2022/03/12 03:02:00;;;;;;;11.07;8.10;;;7.20;52.80;;;;;;4992488;28;20044;-76
2022/03/12 03:04:26;;;;;;;10.13;8.02;;;7.20;53.00;;;;;;4988339;28;20451;-79
2022/03/12 03:06:52;;;;;;;13.05;8.15;;;7.10;53.00;;;;;;4988516;28;20050;-76
2022/03/12 03:09:17;;;;;;;11.02;8.20;;;7.10;53.00;;;;;;5003907;28;20111;-77
2022/03/12 03:11:44;;;;;;;11.30;8.10;;;7.20;53.10;;;;;;4971557;28;20053;-75
2022/03/12 03:14:12;;;;;;;10.27;8.00;;;7.10;53.20;;;;;;4965770;28;20046;-76
2022/03/12 03:16:38;;;;;;;11.35;7.80;;;7.10;53.10;;;;;;4967269;28;20038;-76
2022/03/12 03:19:04;;;;;;;10.55;8.07;;;7.10;53.40;;;;;;4975601;28;20560;-74
2022/03/12 03:21:30;;;;;;;10.07;8.30;;;7.00;53.40;;;;;;4987176;28;20081;-77
2022/03/12 03:24:00;;;;;;;12.35;8.27;;;7.10;53.40;;;;;;4998994;28;20054;-76
2022/03/12 03:26:38;;;;;;;10.95;8.20;;;7.00;53.40;;;;;;4968764;28;20099;-74
2022/03/12 03:29:08;;;;;;;10.43;8.35;;;7.00;53.20;;;;;;4969452;28;20104;-76
2022/03/12 03:31:35;;;;;;;10.55;8.13;;;7.10;53.30;;;;;;4965101;28;20466;-76
2022/03/12 03:34:02;;;;;;;13.40;9.02;;;7.00;53.30;;;;;;4990503;28;20121;-75
2022/03/12 03:36:28;;;;;;;11.02;8.35;;;7.00;53.30;;;;;;4952569;28;20390;-76
2022/03/12 03:38:54;;;;;;;10.13;7.80;;;7.00;53.20;;;;;;4975985;28;20528;-76
2022/03/12 03:41:20;;;;;;;13.13;8.35;;;7.00;53.00;;;;;;4995513;28;20038;-76
2022/03/12 03:43:48;;;;;;;11.15;9.25;;;7.00;53.20;;;;;;4981747;28;20096;-77
2022/03/12 03:46:20;;;;;;;11.32;7.80;;;6.90;53.30;;;;;;4989196;28;20494;-77
2022/03/12 03:48:48;;;;;;;18.98;8.85;;;6.90;53.20;;;;;;4994562;28;20045;-77
2022/03/12 03:51:14;;;;;;;10.43;8.38;;;6.90;53.00;;;;;;4984132;28;20057;-77
2022/03/12 03:53:40;;;;;;;11.00;8.98;;;6.90;53.50;;;;;;4986738;28;20448;-76
2022/03/12 03:56:06;;;;;;;11.68;8.38;;;6.80;53.50;;;;;;4987595;28;20694;-77
2022/03/12 03:58:32;;;;;;;14.20;8.63;;;6.80;54.30;;;;;;4976989;28;20046;-76
2022/03/12 04:01:01;;;;;;;11.40;8.43;;;6.80;54.00;;;;;;4984266;28;20046;-77
2022/03/12 04:03:34;;;;;;;12.60;8.70;;;6.70;53.50;;;;;;5003641;28;20512;-77
2022/03/12 04:06:04;;;;;;;12.82;8.38;;;6.70;53.90;;;;;;4988851;28;20584;-80
2022/03/12 04:08:30;;;;;;;;;;;6.70;54.20;;;;;;4987737;28;20050;-78
2022/03/12 04:10:57;;;;;;;11.68;8.82;;;6.70;54.30;;;;;;4987757;28;19925;-78
2022/03/12 04:13:23;;;;;;;12.73;8.52;;;6.60;54.40;;;;;;4987639;28;20045;-77
2022/03/12 04:15:51;;;;;;;10.98;8.35;;;6.60;54.50;;;;;;5003440;28;20049;-77
2022/03/12 04:18:17;;;;;;;10.52;7.88;;;6.60;54.10;;;;;;5002397;28;20054;-77
2022/03/12 04:20:46;;;;;;;11.55;9.00;;;6.60;54.10;;;;;;4968114;28;20054;-79
2022/03/12 04:23:19;;;;;;;12.27;8.82;;;6.60;54.60;;;;;;4984104;28;20111;-79
2022/03/12 04:25:55;;;;;;;11.35;8.55;;;6.50;54.80;;;;;;5000543;28;20081;-78
2022/03/12 04:28:22;;;;;;;13.13;8.63;;;6.50;55.00;;;;;;4977111;28;20058;-78
2022/03/12 04:30:49;;;;;;;13.15;9.05;;;6.50;55.40;;;;;;4984524;28;20137;-79
2022/03/12 04:33:15;;;;;;;13.20;9.30;;;6.50;54.90;;;;;;4976000;28;20061;-80
2022/03/12 04:35:42;;;;;;;11.52;8.30;;;6.50;54.80;;;;;;4952118;28;20047;-77
2022/03/12 04:38:13;;;;;;;11.98;8.23;;;6.50;54.80;;;;;;4967396;28;20568;-79
2022/03/12 04:40:40;;;;;;;12.55;8.90;;;6.40;55.00;;;;;;4967556;28;20042;-79
2022/03/12 04:43:07;;;;;;;10.50;8.77;;;6.50;55.30;;;;;;4992601;28;20062;-79
2022/03/12 04:45:34;;;;;;;11.45;8.82;;;6.40;55.50;;;;;;4973758;28;20049;-78
2022/03/12 04:48:00;;;;;;;11.93;9.18;;;6.40;55.50;;;;;;5002493;28;20046;-77
2022/03/12 04:50:26;;;;;;;13.27;8.70;;;6.40;55.80;;;;;;4971170;28;20501;-77
2022/03/12 04:52:53;;;;;;;12.13;8.60;;;6.50;55.30;;;;;;4973630;28;20497;-80
2022/03/12 04:55:21;;;;;;;14.35;8.98;;;6.40;55.40;;;;;;4986764;28;20042;-80
2022/03/12 04:57:48;;;;;;;16.08;8.50;;;6.40;55.60;;;;;;4987716;28;20073;-79
2022/03/12 05:00:18;;;;;;;11.77;8.93;;;6.40;55.80;;;;;;4986582;28;20057;-80
2022/03/12 05:02:45;;;;;;;13.05;9.18;;;6.40;56.50;;;;;;4989176;28;20496;-77
2022/03/12 05:05:12;;;;;;;12.68;8.80;;;6.30;55.60;;;;;;4990333;28;20058;-79
2022/03/12 05:07:46;;;;;;;11.50;9.13;;;6.40;55.90;;;;;;4990672;28;20045;-78
2022/03/12 05:10:13;;;;;;;12.05;9.27;;;6.40;56.10;;;;;;4990470;28;20563;-78
2022/03/12 05:12:48;;;;;;;12.20;9.10;;;6.30;56.10;;;;;;4974109;28;20046;-80
2022/03/12 05:15:15;;;;;;;13.32;10.15;;;6.30;56.00;;;;;;4974220;28;20137;-78
2022/03/12 05:17:46;;;;;;;13.50;9.02;;;6.30;56.50;;;;;;5006879;28;20060;-79
2022/03/12 05:20:18;;;;;;;10.93;8.75;;;6.30;56.60;;;;;;4986161;28;20050;-80
2022/03/12 05:22:44;;;;;;;12.23;9.20;;;6.30;56.60;;;;;;4988852;28;20081;-80
2022/03/12 05:25:10;;;;;;;11.45;8.48;;;6.30;56.60;;;;;;4990158;28;20429;-80
2022/03/12 05:27:36;;;;;;;14.25;8.07;;;6.30;56.90;;;;;;5006440;28;20097;-80
2022/03/12 05:30:04;;;;;;;11.43;8.40;;;6.30;56.90;;;;;;4989549;28;20080;-81
2022/03/12 05:32:30;;;;;;;11.98;8.35;;;6.20;56.90;;;;;;5001017;28;20054;-80
2022/03/12 05:34:59;;;;;;;14.43;9.35;;;6.20;56.90;;;;;;4983181;28;20050;-80
2022/03/12 05:37:24;;;;;;;12.20;8.25;;;6.20;56.90;;;;;;4991302;28;20777;-80
2022/03/12 05:39:51;;;;;;;11.05;9.10;;;6.20;56.90;;;;;;4997426;28;20054;-79
2022/03/12 05:42:19;;;;;;;12.15;8.88;;;6.20;57.20;;;;;;4985350;28;20125;-80
2022/03/12 05:44:44;;;;;;;11.40;8.45;;;6.20;57.30;;;;;;4985980;28;20525;-80
2022/03/12 05:47:10;;;;;;;11.95;8.45;;;6.20;57.40;;;;;;4986340;28;20038;-80
2022/03/12 05:49:36;;;;;;;10.23;8.13;;;6.20;57.30;;;;;;4988380;28;20054;-80
2022/03/12 05:52:03;;;;;;;11.65;9.02;;;6.10;57.40;;;;;;4986215;28;20054;-79
2022/03/12 05:54:29;;;;;;;12.23;8.52;;;6.10;58.10;;;;;;4982796;28;20054;-79
2022/03/12 05:56:56;;;;;;;10.95;8.27;;;6.10;57.20;;;;;;5012040;28;20061;-81
2022/03/12 05:59:22;;;;;;;13.68;8.77;;;6.10;57.00;;;;;;5006268;28;20045;-79
2022/03/12 06:01:50;;;;;;;12.63;8.40;;;6.10;57.10;;;;;;4988448;28;20411;-80
2022/03/12 06:04:25;;;;;;;13.70;8.55;;;6.10;57.40;;;;;;4989771;28;20071;-80
2022/03/12 06:06:55;;;;;;;11.70;8.65;;;6.10;57.60;;;;;;5006672;28;20058;-78
2022/03/12 06:09:21;;;;;;;13.60;8.80;;;6.00;57.50;;;;;;5005540;28;20637;-80
2022/03/12 06:11:49;;;;;;;12.45;8.20;;;6.00;57.90;;;;;;4973265;28;20034;-78
2022/03/12 06:14:16;;;;;;;12.65;8.20;;;6.00;58.10;;;;;;5005807;28;20136;-80
2022/03/12 06:16:48;;;;;;;12.38;8.60;;;6.00;58.10;;;;;;5006411;28;20100;-79
2022/03/12 06:19:21;;;;;;;12.50;8.38;;;6.00;58.40;;;;;;4989577;28;20506;-78
2022/03/12 06:21:48;;;;;;;9.30;7.75;;;6.00;58.30;;;;;;5005626;28;20473;-79
2022/03/12 06:24:14;;;;;;;11.45;8.40;;;5.90;58.40;;;;;;4999664;28;20424;-78
2022/03/12 06:26:43;;;;;;;11.02;8.30;;;5.90;58.60;;;;;;4988873;28;20133;-79
2022/03/12 06:29:15;;;;;;;15.18;8.73;;;5.90;58.70;;;;;;5005392;28;20050;-80
2022/03/12 06:31:42;;;;;;;12.52;8.23;;;6.00;59.00;;;;;;4971314;28;20050;-80
2022/03/12 06:34:10;;;;;;;12.35;8.60;;;5.90;59.00;;;;;;4953284;28;20050;-79
2022/03/12 06:36:40;;;;;;;12.20;8.55;;;5.90;59.20;;;;;;4985638;28;20058;-79
2022/03/12 06:39:07;;;;;;;10.98;8.52;;;5.90;59.00;;;;;;4969084;28;20057;-78
2022/03/12 06:41:38;;;;;;;11.35;8.82;;;5.90;59.30;;;;;;4969518;28;20053;-79
2022/03/12 06:44:06;;;;;;;11.90;8.60;;;5.90;59.50;;;;;;4969492;28;20061;-80
2022/03/12 06:46:36;;;;;;;11.35;8.65;;;5.90;59.60;;;;;;4978289;28;20041;-77
2022/03/12 06:49:03;;;;;;;14.55;9.27;;;5.90;59.80;;;;;;4975994;28;20057;-77
2022/03/12 06:51:29;;;;;;;15.88;8.88;;;5.90;60.00;;;;;;4998543;28;20045;-77
2022/03/12 06:53:55;;;;;;;13.13;8.63;;;5.90;60.20;;;;;;4991139;28;20547;-76
2022/03/12 06:56:21;;;;;;;12.60;8.85;;;5.90;60.30;;;;;;4960841;28;20576;-77
2022/03/12 06:58:47;;;;;;;10.50;8.63;;;5.90;60.20;;;;;;4964745;28;20113;-77
2022/03/12 07:01:13;;;;;;;11.68;8.90;;;5.90;60.40;;;;;;4974252;28;20061;-76
2022/03/12 07:03:39;;;;;;;12.55;9.02;;;5.90;60.60;;;;;;4979752;28;20046;-76
2022/03/12 07:06:06;;;;;;;11.20;8.07;;;5.90;60.70;;;;;;4966666;28;20096;-77
2022/03/12 07:08:33;;;;;;;12.02;8.77;;;5.90;60.60;;;;;;4982737;28;20049;-77
2022/03/12 07:11:00;;;;;;;14.27;9.52;;;6.00;61.10;;;;;;4976605;28;20427;-77
2022/03/12 07:13:27;;;;;;;10.93;8.48;;;5.90;61.30;;;;;;4981291;28;20041;-77
2022/03/12 07:15:52;;;;;;;12.13;8.80;;;5.90;61.30;;;;;;4977081;28;20037;-76
2022/03/12 07:18:18;;;;;;;11.07;8.30;;;5.90;61.00;;;;;;4990593;28;20088;-77
2022/03/12 07:20:44;;;;;;;14.45;9.00;;;5.90;61.20;;;;;;4968580;28;20145;-77
2022/03/12 07:23:10;;;;;;;12.13;8.50;;;5.90;61.50;;;;;;4987008;28;20481;-77
2022/03/12 07:25:36;;;;;;;10.77;8.45;;;5.90;61.70;;;;;;4981083;28;20042;-77
2022/03/12 07:28:02;;;;;;;11.35;8.57;;;5.90;61.70;;;;;;4988471;28;20053;-77
2022/03/12 07:30:27;;;;;;;12.35;9.63;;;6.00;62.00;;;;;;4984682;28;20104;-77
2022/03/12 07:32:53;;;;;;;12.55;8.90;;;6.10;61.80;;;;;;4970937;28;20113;-77
2022/03/12 07:35:19;;;;;;;12.68;8.40;;;6.10;61.80;;;;;;4963733;28;20050;-77
2022/03/12 07:37:46;;;;;;;11.45;9.00;;;6.20;61.90;;;;;;4977831;28;20777;-77
2022/03/12 07:40:13;;;;;;;13.35;8.15;;;6.40;61.70;;;;;;4983259;28;20933;-77
2022/03/12 07:42:39;;;;;;;13.02;9.65;;;6.60;61.30;;;;;;4986333;28;20061;-77
2022/03/12 07:45:08;;;;;;;15.50;9.20;;;6.70;60.90;;;;;;4989638;28;20077;-77
2022/03/12 07:47:34;;;;;;;11.77;9.90;;;6.90;60.70;;;;;;4976372;28;20046;-78
2022/03/12 07:50:00;;;;;;;14.80;9.15;;;7.10;60.50;;;;;;4985104;28;20049;-77
2022/03/12 07:52:26;;;;;;;13.63;9.20;;;7.20;60.50;;;;;;4966477;28;20523;-78
2022/03/12 07:54:52;;;;;;;16.50;9.60;;;7.30;60.00;;;;;;4967117;28;20045;-78
2022/03/12 07:57:18;;;;;;;13.00;9.07;;;7.40;59.60;;;;;;4970800;28;20085;-78
2022/03/12 07:59:44;;;;;;;11.32;8.70;;;7.50;60.00;;;;;;4995997;28;20034;-78
2022/03/12 08:02:11;;;;;;;12.95;9.45;;;7.60;59.90;;;;;;4973578;28;20053;-78
2022/03/12 08:04:37;;;;;;;13.93;9.20;;;7.60;59.80;;;;;;4989863;28;20050;-77
2022/03/12 08:07:04;;;;;;;13.40;9.48;;;7.70;59.90;;;;;;4983493;28;20057;-77
2022/03/12 08:09:31;;;;;;;12.82;9.50;;;7.80;59.90;;;;;;4972215;28;20153;-77
2022/03/12 08:11:58;;;;;;;12.07;9.50;;;7.90;60.20;;;;;;4986254;28;20073;-76
2022/03/12 08:14:25;;;;;;;13.60;9.95;;;7.90;60.20;;;;;;4987188;28;20397;-77
2022/03/12 08:16:52;;;;;;;12.27;9.63;;;8.00;60.30;;;;;;4974744;28;20093;-77
2022/03/12 08:19:19;;;;;;;16.05;11.15;;;8.10;60.00;;;;;;4989017;28;20038;-75
2022/03/12 08:21:46;;;;;;;15.68;11.02;;;8.20;60.20;;;;;;4991285;28;20042;-77
2022/03/12 08:24:15;;;;;;;15.57;12.15;;;8.30;59.80;;;;;;4975750;28;20501;-78
2022/03/12 08:26:45;;;;;;;18.02;12.50;;;8.40;59.60;;;;;;4987801;28;20113;-82
2022/03/12 08:29:12;;;;;;;18.05;13.85;;;8.50;60.00;;;;;;4995813;28;20058;-81
2022/03/12 08:31:39;;;;;;;20.20;13.65;;;8.70;59.70;;;;;;4993926;28;20038;-81
2022/03/12 08:34:06;;;;;;;23.83;14.50;;;8.80;59.40;;;;;;4997688;28;20128;-80
2022/03/12 08:36:32;;;;;;;25.38;14.95;;;9.00;59.20;;;;;;4981439;28;20050;-81
2022/03/12 08:38:58;;;;;;;21.63;14.73;;;9.20;59.10;;;;;;4978901;28;20121;-81
2022/03/12 08:41:24;;;;;;;21.77;15.05;;;9.40;59.10;;;;;;4991071;28;20549;-80
2022/03/12 08:43:51;;;;;;;20.45;14.50;;;9.40;59.00;;;;;;5001510;28;20358;-83
2022/03/12 08:46:18;;;;;;;22.30;14.50;;;9.50;59.00;;;;;;4975949;28;20054;-79
2022/03/12 08:48:44;;;;;;;19.65;14.27;;;9.60;59.00;;;;;;4993673;28;20138;-81
2022/03/12 08:51:10;;;;;;;18.42;13.07;;;9.70;59.00;;;;;;4987716;28;20045;-80
2022/03/12 08:53:37;;;;;;;20.10;13.50;;;9.80;59.10;;;;;;4999468;28;20046;-80
2022/03/12 08:56:04;;;;;;;18.27;13.00;;;9.90;59.40;;;;;;4986602;28;20050;-80
2022/03/12 08:58:31;;;;;;;16.20;11.18;;;10.00;59.50;;;;;;4986189;28;20050;-81
2022/03/12 09:00:58;;;;;;;15.93;11.13;;;10.10;60.00;;;;;;4969096;28;20438;-80
2022/03/12 09:03:24;;;;;;;15.07;11.10;;;10.20;60.20;;;;;;4997484;28;20065;-81
2022/03/12 09:05:51;;;;;;;14.57;11.15;;;10.30;60.60;;;;;;5007011;28;20393;-80
2022/03/12 09:08:18;;;;;;;14.27;10.98;;;10.40;59.60;;;;;;4986016;28;20470;-81
2022/03/12 09:10:44;;;;;;;13.15;10.70;;;10.50;60.10;;;;;;4995554;28;20038;-81
2022/03/12 09:13:14;;;;;;;15.75;10.35;;;10.70;60.00;;;;;;4969829;28;20573;-81
2022/03/12 09:15:41;;;;;;;13.77;10.77;;;10.80;59.60;;;;;;4987073;28;20058;-82
2022/03/12 09:18:09;;;;;;;13.30;11.00;;;10.90;59.80;;;;;;4985946;28;20061;-81
2022/03/12 09:20:38;;;;;;;13.48;10.55;;;11.00;59.80;;;;;;4984438;28;20057;-80
2022/03/12 09:23:04;;;;;;;13.93;10.70;;;11.00;59.80;;;;;;4990219;28;20159;-82
2022/03/12 09:25:30;;;;;;;12.98;10.13;;;11.10;60.40;;;;;;4995118;28;20100;-82
2022/03/12 09:27:57;;;;;;;12.80;10.50;;;11.20;60.70;;;;;;4943023;28;20316;-83
2022/03/12 09:30:22;;;;;;;20.38;11.05;;;11.40;61.10;;;;;;4992961;28;20113;-83
2022/03/12 09:32:48;;;;;;;12.88;10.57;;;11.50;61.70;;;;;;4994352;28;20485;-82
2022/03/12 09:35:14;;;;;;;14.07;11.07;;;11.70;61.60;;;;;;4968947;28;20046;-83
2022/03/12 09:37:40;;;;;;;13.00;10.90;;;11.80;62.10;;;;;;4985889;28;20393;-82
2022/03/12 09:40:08;;;;;;;13.45;10.50;;;11.90;63.00;;;;;;4953322;28;20050;-82
2022/03/12 09:42:34;;;;;;;13.45;10.25;;;12.00;63.80;;;;;;4972838;28;20053;-82
2022/03/12 09:45:02;;;;;;;12.68;10.30;;;12.10;64.60;;;;;;5005279;28;20057;-82
2022/03/12 09:47:27;;;;;;;14.27;10.95;;;12.10;64.40;;;;;;4988280;28;20037;-81
2022/03/12 09:49:53;;;;;;;13.98;11.07;;;12.20;64.90;;;;;;4993798;28;20134;-83
2022/03/12 09:52:19;;;;;;;15.52;10.63;;;12.20;65.70;;;;;;4985291;28;20133;-82
2022/03/12 09:54:46;;;;;;;15.32;10.52;;;12.20;65.20;;;;;;4976574;28;20048;-82
2022/03/12 09:57:11;;;;;;;16.75;11.27;;;12.20;65.40;;;;;;4994521;28;20272;-83
2022/03/12 09:59:40;;;;;;;13.85;11.43;;;12.30;65.40;;;;;;4984890;28;20046;-82
2022/03/12 10:02:06;;;;;;;16.55;11.07;;;12.30;66.20;;;;;;4948287;28;20081;-84
2022/03/12 10:04:32;;;;;;;15.77;11.50;;;12.30;66.60;;;;;;4971676;28;20414;-82
2022/03/12 10:06:58;;;;;;;14.25;11.80;;;12.30;66.50;;;;;;4976854;28;20046;-80
2022/03/12 10:09:24;;;;;;;15.48;11.43;;;12.30;66.60;;;;;;4975740;28;20053;-84
2022/03/12 10:11:53;;;;;;;16.80;12.02;;;12.30;67.50;;;;;;4988417;28;20165;-83
2022/03/12 10:14:20;;;;;;;15.15;11.40;;;12.30;67.70;;;;;;4983967;28;20042;-82
2022/03/12 10:16:46;;;;;;;14.32;11.45;;;12.40;68.50;;;;;;4985488;28;20240;-85
2022/03/12 10:19:12;;;;;;;15.00;11.75;;;12.40;68.80;;;;;;4952758;28;20046;-84
2022/03/12 10:21:42;;;;;;;14.13;11.10;;;12.50;69.10;;;;;;4985397;28;20050;-82
2022/03/12 10:24:14;;;;;;;14.88;11.05;;;12.50;70.00;;;;;;4959017;28;20054;-83
2022/03/12 10:26:42;;;;;;;15.10;10.98;;;12.50;70.10;;;;;;4964545;28;20048;-84
2022/03/12 10:29:09;;;;;;;14.00;11.52;;;12.60;70.80;;;;;;4968721;28;20323;-83
2022/03/12 10:31:38;;;;;;;13.60;11.30;;;12.70;71.00;;;;;;4978821;28;20146;-81
2022/03/12 10:34:13;;;;;;;14.18;11.73;;;12.80;72.00;;;;;;4954869;28;20088;-82
2022/03/12 10:36:39;;;;;;;14.27;10.93;;;12.90;73.30;;;;;;4993115;28;20096;-84
2022/03/12 10:39:05;;;;;;;14.20;10.68;;;13.00;74.20;;;;;;4982389;28;20050;-85
2022/03/12 10:41:31;;;;;;;10.65;9.25;;;13.10;76.60;;;;;;4967594;28;20043;-83
2022/03/12 10:44:00;;;;;;;11.27;8.98;;;13.30;79.70;;;;;;4989995;28;20135;-78
2022/03/12 10:46:28;;;;;;;14.52;9.40;;;13.40;82.30;;;;;;4974131;28;20038;-79
2022/03/12 10:48:59;;;;;;;10.20;7.47;;;13.40;85.60;;;;;;4972829;28;20303;-85
2022/03/12 10:51:27;;;;;;;11.98;7.95;;;13.50;86.70;;;;;;4991713;28;20066;-81
2022/03/12 10:54:15;;;;;;;11.07;8.38;;;13.50;88.40;;;;;;4976150;28;20217;-81
2022/03/12 10:56:43;;;;;;;11.90;7.90;;;13.50;90.30;;;;;;4991592;28;20140;-80
2022/03/12 10:59:14;;;;;;;11.25;8.60;;;13.50;90.80;;;;;;4991180;28;20050;-78
2022/03/12 11:01:55;;;;;;;11.57;8.15;;;13.60;91.50;;;;;;4983432;28;20425;-79
2022/03/12 11:04:27;;;;;;;12.80;8.82;;;13.60;90.50;;;;;;4984266;28;20061;-78
2022/03/12 11:06:55;;;;;;;10.85;8.50;;;13.60;90.50;;;;;;4982103;28;20532;-80
2022/03/12 11:09:41;;;;;;;13.20;8.80;;;13.60;90.10;;;;;;4967711;28;20054;-80
2022/03/12 11:12:31;;;;;;;10.95;8.20;;;13.70;90.50;;;;;;4967714;28;20049;-80
2022/03/12 11:15:05;;;;;;;11.98;7.90;;;13.80;91.00;;;;;;4984247;28;20260;-79
2022/03/12 11:17:50;;;;;;;12.20;8.57;;;13.80;90.30;;;;;;4983930;28;20137;-80
2022/03/12 11:20:21;;;;;;;12.75;8.20;;;13.90;90.00;;;;;;4967073;28;20092;-80
2022/03/12 11:22:48;;;;;;;;;;;13.90;90.00;;;;;;4985398;28;20062;-82
2022/03/12 11:25:18;;;;;;;11.70;8.43;;;13.90;90.50;;;;;;5011699;28;20455;-78
2022/03/12 11:27:49;;;;;;;11.40;8.20;;;14.00;90.40;;;;;;4979379;28;20513;-78
2022/03/12 11:30:20;;;;;;;14.10;8.13;;;14.00;88.50;;;;;;4974848;28;20046;-81
2022/03/12 11:32:47;;;;;;;10.43;8.25;;;14.00;87.00;;;;;;4987286;28;20037;-80
2022/03/12 11:35:18;;;;;;;10.85;7.90;;;14.00;86.90;;;;;;4999174;28;20137;-77
2022/03/12 11:37:43;;;;;;;;;;;14.00;86.50;;;;;;4968799;28;20050;-80
2022/03/12 11:40:19;;;;;;;12.73;8.40;;;14.00;86.70;;;;;;4983264;28;19929;-80
2022/03/12 11:42:48;;;;;;;10.88;8.23;;;14.10;87.00;;;;;;4977196;28;20050;-82
2022/03/12 11:45:15;;;;;;;11.18;7.82;;;14.10;86.40;;;;;;4988859;28;20603;-80
2022/03/12 11:47:43;;;;;;;11.90;7.90;;;14.10;86.60;;;;;;4985250;28;20509;-81
2022/03/12 11:50:13;;;;;;;12.68;8.48;;;14.10;88.10;;;;;;4987748;28;20043;-80
2022/03/12 11:52:41;;;;;;;9.30;7.35;;;14.10;88.00;;;;;;4996734;28;20096;-79
2022/03/12 11:55:17;;;;;;;11.82;8.60;;;14.20;86.90;;;;;;4996734;28;20667;-81
2022/03/12 11:57:45;;;;;;;11.48;8.82;;;14.20;87.70;;;;;;4984270;28;20111;-80
2022/03/12 12:00:22;;;;;;;12.75;9.75;;;14.40;87.10;;;;;;4975701;28;20042;-82
2022/03/12 12:02:50;;;;;;;13.27;9.43;;;14.40;86.60;;;;;;4974171;28;20045;-81
2022/03/12 12:05:17;;;;;;;12.23;9.70;;;14.40;86.90;;;;;;4972846;28;20884;-78
2022/03/12 12:07:45;;;;;;;11.88;9.40;;;14.50;86.40;;;;;;4969243;28;20038;-80
2022/03/12 12:10:16;;;;;;;12.07;9.20;;;14.60;87.20;;;;;;4978286;28;20793;-81
2022/03/12 12:12:52;;;;;;;12.48;9.55;;;14.60;85.60;;;;;;4987419;28;20064;-79
2022/03/12 12:15:25;;;;;;;11.95;8.90;;;14.60;85.10;;;;;;4983795;28;20154;-80
2022/03/12 12:17:52;;;;;;;15.63;9.77;;;14.50;84.20;;;;;;4986011;28;20046;-81
2022/03/12 12:20:20;;;;;;;12.00;9.15;;;14.40;85.00;;;;;;4986501;28;20053;-80
2022/03/12 12:22:46;;;;;;;12.65;9.77;;;14.40;85.80;;;;;;4986658;28;20347;-80
2022/03/12 12:25:14;;;;;;;10.68;8.77;;;14.40;85.40;;;;;;5003013;28;20475;-80
2022/03/12 12:27:46;;;;;;;12.73;8.38;;;14.40;85.40;;;;;;4995461;28;20369;-81
2022/03/12 12:30:28;;;;;;;13.32;8.75;;;14.50;85.70;;;;;;4982729;28;20050;-80
2022/03/12 12:32:54;;;;;;;12.07;9.40;;;14.50;86.20;;;;;;4967182;28;20093;-81
2022/03/12 12:35:23;;;;;;;10.25;8.45;;;14.60;85.00;;;;;;4967375;28;20449;-80
2022/03/12 12:37:49;;;;;;;12.17;8.83;;;14.70;84.30;;;;;;4967621;28;20566;-81
2022/03/12 12:40:36;;;;;;;12.50;8.75;;;14.70;84.00;;;;;;4982971;28;20440;-79
2022/03/12 12:43:13;;;;;;;11.00;8.45;;;14.70;83.20;;;;;;4991424;28;20638;-79
2022/03/12 12:45:55;;;;;;;12.30;8.43;;;14.70;83.30;;;;;;5003722;28;20116;-82
2022/03/12 12:48:34;;;;;;;10.93;8.32;;;14.80;82.90;;;;;;4985978;28;20396;-80